Time;durP1;ratioP1;P1;durP2;ratioP2;P2;SDS_P1;SDS_P2;PMS_P1;PMS_P2;Temp;Humidity;BMP_temperature;BMP_pressure;BME280_temperature;BME280_humidity;BME280_pressure;Samples;Min_cycle;Max_cycle;Signal;HPM_P1;HPM_P2
2023/12/06 00:00:20;;;;;;;22.67;11.53;;;;;;;7.02;92.36;96866.81;4913734;29;20216;-73
2023/12/06 00:02:49;;;;;;;25.47;12.07;;;;;;;7.02;92.88;96864.25;4912574;29;20242;-74
2023/12/06 00:05:17;;;;;;;22.33;11.80;;;;;;;6.89;93.19;96860.41;4913637;29;20217;-73
2023/12/06 00:07:44;;;;;;;23.23;11.63;;;;;;;6.89;93.41;96855.25;4913107;29;20216;-74
2023/12/06 00:10:11;;;;;;;28.23;12.83;;;;;;;6.48;92.98;96857.50;4912951;29;20268;-73
2023/12/06 00:12:38;;;;;;;24.37;12.20;;;;;;;6.55;94.74;96848.66;4913570;29;20188;-73
2023/12/06 00:15:06;;;;;;;27.13;12.80;;;;;;;6.70;94.48;96852.47;4912546;29;20213;-72
2023/12/06 00:17:33;;;;;;;29.90;14.07;;;;;;;6.69;94.75;96871.38;4913468;29;20253;-72
2023/12/06 00:20:00;;;;;;;30.83;13.00;;;;;;;6.45;94.52;96801.00;4912345;29;20211;-73
2023/12/06 00:22:29;;;;;;;29.00;12.73;;;;;;;6.83;94.21;96869.19;4913282;29;20814;-73
2023/12/06 00:24:57;;;;;;;23.47;12.70;;;;;;;6.83;94.80;96852.91;4912742;29;20252;-74
2023/12/06 00:27:24;;;;;;;30.87;13.30;;;;;;;6.54;94.31;96787.00;4912767;29;20205;-74
2023/12/06 00:29:51;;;;;;;25.07;13.67;;;;;;;7.10;93.40;96852.78;4913047;29;20225;-74
2023/12/06 00:32:18;;;;;;;27.33;13.77;;;;;;;6.95;93.28;96842.19;4911185;29;20208;-71
2023/12/06 00:34:45;;;;;;;27.50;13.70;;;;;;;6.81;93.95;96844.38;4913265;29;20274;-72
2023/12/06 00:37:13;;;;;;;29.83;12.87;;;;;;;6.83;94.01;96829.72;4911795;29;20215;-74
2023/12/06 00:39:40;;;;;;;32.00;15.00;;;;;;;6.73;93.94;96836.09;4913087;29;20690;-69
2023/12/06 00:42:07;;;;;;;32.87;13.77;;;;;;;6.44;96.15;96830.19;4912195;29;20213;-70
2023/12/06 00:44:34;;;;;;;26.27;12.77;;;;;;;6.26;96.95;96825.66;4913059;29;20208;-71
2023/12/06 00:47:01;;;;;;;28.50;12.03;;;;;;;6.35;97.05;96816.78;4912960;29;20228;-74
2023/12/06 00:49:28;;;;;;;29.47;13.60;;;;;;;6.37;97.41;96818.41;4911952;29;20848;-70
2023/12/06 00:51:55;;;;;;;23.57;12.50;;;;;;;6.62;96.17;96817.59;4911697;29;20212;-72
2023/12/06 00:54:22;;;;;;;27.00;13.77;;;;;;;6.59;96.45;96810.84;4911929;29;20290;-73
2023/12/06 00:56:50;;;;;;;30.10;13.23;;;;;;;6.50;96.53;96812.00;4912829;29;20700;-72
2023/12/06 00:59:17;;;;;;;28.33;13.90;;;;;;;5.91;96.22;96697.44;4911881;29;20205;-72
2023/12/06 01:01:44;;;;;;;30.40;13.33;;;;;;;6.73;96.04;96805.22;4912332;29;20864;-70
2023/12/06 01:04:12;;;;;;;26.90;13.20;;;;;;;6.84;95.06;96826.28;4912288;29;20576;-72
2023/12/06 01:06:39;;;;;;;27.10;13.03;;;;;;;6.84;94.58;96816.00;4911658;29;20215;-72
2023/12/06 01:09:08;;;;;;;21.60;11.67;;;;;;;7.00;94.73;96810.25;4911509;29;20237;-75
2023/12/06 01:11:35;;;;;;;28.23;13.17;;;;;;;6.59;93.52;96779.97;4911337;29;20282;-73
2023/12/06 01:14:02;;;;;;;29.33;13.60;;;;;;;6.82;94.90;96781.75;4912533;29;20561;-72
2023/12/06 01:16:29;;;;;;;29.37;13.27;;;;;;;6.88;94.69;96800.41;4911391;29;20284;-69
2023/12/06 01:18:56;;;;;;;28.97;13.33;;;;;;;6.74;94.25;96768.31;4912219;29;20264;-69
2023/12/06 01:21:24;;;;;;;27.37;13.57;;;;;;;6.92;94.33;96791.66;4911801;29;20217;-68
2023/12/06 01:23:52;;;;;;;27.53;13.53;;;;;;;6.51;93.83;96736.50;4911327;29;20600;-69
2023/12/06 01:26:19;;;;;;;24.80;13.07;;;;;;;6.72;93.69;96783.78;4911982;29;20228;-69
2023/12/06 01:28:46;;;;;;;31.03;14.40;;;;;;;6.83;94.75;96779.09;4911094;29;20728;-69
2023/12/06 01:31:13;;;;;;;28.33;12.70;;;;;;;6.90;93.40;96785.72;4911073;29;20285;-70
2023/12/06 01:33:41;;;;;;;29.43;13.43;;;;;;;6.86;94.17;96767.88;4910920;29;20275;-70
2023/12/06 01:36:08;;;;;;;31.77;14.13;;;;;;;6.69;93.04;96752.19;4911882;29;20292;-68
2023/12/06 01:38:35;;;;;;;25.37;12.07;;;;;;;6.69;93.91;96721.31;4911384;29;20272;-69
2023/12/06 01:41:02;;;;;;;29.07;13.27;;;;;;;6.97;93.87;96770.88;4911679;29;20205;-70
2023/12/06 01:43:29;;;;;;;25.60;12.20;;;;;;;6.97;93.64;96776.88;4911841;29;20637;-69
2023/12/06 01:45:56;;;;;;;27.73;13.83;;;;;;;6.88;93.99;96754.06;4911025;29;20256;-70
2023/12/06 01:48:24;;;;;;;32.13;13.47;;;;;;;7.03;93.74;96775.81;4911734;29;20232;-70
2023/12/06 01:50:52;;;;;;;25.93;13.50;;;;;;;7.19;93.27;96764.91;4910497;29;20217;-70
2023/12/06 01:53:19;;;;;;;34.93;16.10;;;;;;;7.06;93.24;96762.84;4911785;29;20306;-70
2023/12/06 01:55:46;;;;;;;32.97;14.07;;;;;;;6.86;94.09;96763.53;4894082;29;20265;-70
2023/12/06 01:58:14;;;;;;;30.93;14.03;;;;;;;7.12;93.33;96758.31;4910100;29;20234;-70
2023/12/06 02:00:41;;;;;;;32.40;14.73;;;;;;;7.07;92.61;96754.22;4911811;29;20205;-71
2023/12/06 02:03:08;;;;;;;27.63;13.47;;;;;;;7.07;93.86;96749.06;4910612;29;20218;-70
2023/12/06 02:05:35;;;;;;;31.67;15.60;;;;;;;6.95;93.10;96750.34;4911661;29;20569;-71
2023/12/06 02:08:04;;;;;;;29.67;14.07;;;;;;;6.93;93.92;96751.31;4910357;29;20201;-71
2023/12/06 02:10:31;;;;;;;30.67;14.30;;;;;;;6.70;95.47;96752.13;4911506;29;20322;-72
2023/12/06 02:12:58;;;;;;;41.13;13.70;;;;;;;6.76;95.66;96758.81;4910632;29;20557;-73
2023/12/06 02:15:25;;;;;;;26.50;13.40;;;;;;;6.45;94.71;96692.16;4911095;29;20713;-74
2023/12/06 02:17:53;;;;;;;24.13;12.30;;;;;;;6.80;94.52;96739.78;4911101;29;20200;-71
2023/12/06 02:20:21;;;;;;;31.50;14.40;;;;;;;6.52;95.90;96752.75;4910283;29;20212;-74
2023/12/06 02:22:50;;;;;;;22.57;11.30;;;;;;;6.68;96.19;96750.53;4911324;29;20224;-72
2023/12/06 02:25:17;;;;;;;27.60;12.40;;;;;;;6.52;95.32;96734.75;4910204;29;20287;-72
2023/12/06 02:27:45;;;;;;;27.60;12.97;;;;;;;6.43;95.88;96747.94;4911328;29;20279;-71
2023/12/06 02:30:13;;;;;;;25.53;13.00;;;;;;;6.40;96.66;96741.19;4910287;29;20243;-70
2023/12/06 02:32:41;;;;;;;36.10;17.43;;;;;;;6.29;96.98;96717.56;4910833;29;20288;-70
2023/12/06 02:35:16;;;;;;;30.43;15.27;;;;;;;6.04;97.07;96661.91;4911042;29;20751;-72
2023/12/06 02:37:46;;;;;;;37.53;18.60;;;;;;;6.45;96.96;96734.13;4910674;29;20291;-70
2023/12/06 02:40:15;;;;;;;30.13;14.60;;;;;;;6.33;97.02;96720.84;4911251;29;20259;-73
2023/12/06 02:42:42;;;;;;;27.13;13.10;;;;;;;6.56;97.19;96731.19;4910091;29;20189;-74
2023/12/06 02:45:09;;;;;;;31.10;14.57;;;;;;;6.29;97.84;96734.69;4911036;29;20300;-72
2023/12/06 02:47:37;;;;;;;32.13;15.40;;;;;;;6.15;97.65;96706.06;4910113;29;20282;-74
2023/12/06 02:50:05;;;;;;;32.83;15.47;;;;;;;6.33;97.31;96719.13;4910617;29;20715;-72
2023/12/06 02:52:32;;;;;;;30.60;14.33;;;;;;;6.20;97.82;96707.56;4911081;29;20208;-72
2023/12/06 02:55:00;;;;;;;34.97;15.37;;;;;;;6.11;99.03;96687.34;4910266;29;20649;-70
2023/12/06 02:57:27;;;;;;;31.60;15.50;;;;;;;6.04;98.65;96678.13;4910995;29;20188;-74
2023/12/06 02:59:54;;;;;;;34.37;16.93;;;;;;;5.92;98.98;96681.13;4909790;29;20657;-74
2023/12/06 03:02:21;;;;;;;35.20;15.90;;;;;;;6.04;100.00;96695.31;4910934;29;20318;-73
2023/12/06 03:04:48;;;;;;;26.50;14.10;;;;;;;6.16;99.21;96695.72;4910240;29;20557;-73
2023/12/06 03:07:15;;;;;;;29.63;14.47;;;;;;;6.45;99.08;96692.97;4910795;29;20226;-71
2023/12/06 03:09:42;;;;;;;24.87;12.53;;;;;;;6.35;98.05;96696.78;4910611;29;20307;-71
2023/12/06 03:12:09;;;;;;;29.37;14.63;;;;;;;6.46;97.26;96693.81;4909996;29;20251;-73
2023/12/06 03:14:36;;;;;;;33.53;15.63;;;;;;;6.39;97.94;96676.91;4910741;29;20283;-71
2023/12/06 03:17:03;;;;;;;29.77;14.73;;;;;;;6.68;97.06;96699.06;4909921;29;20233;-72
2023/12/06 03:19:30;;;;;;;33.43;15.33;;;;;;;6.62;96.63;96669.22;4910809;29;20591;-71
2023/12/06 03:21:57;;;;;;;32.20;15.13;;;;;;;6.37;94.78;96633.25;4910024;29;20591;-72
2023/12/06 03:24:25;;;;;;;36.97;16.03;;;;;;;6.85;95.07;96696.69;4910702;29;20229;-71
2023/12/06 03:26:52;;;;;;;38.60;18.10;;;;;;;6.81;94.09;96695.13;4910065;29;20207;-69
2023/12/06 03:29:19;;;;;;;36.80;17.47;;;;;;;6.77;94.95;96691.84;4909914;29;20233;-72
2023/12/06 03:31:46;;;;;;;33.20;17.13;;;;;;;6.49;95.41;96650.81;4911601;29;20205;-73
2023/12/06 03:34:13;;;;;;;38.73;18.20;;;;;;;6.88;95.30;96697.44;4913296;29;20243;-71
2023/12/06 03:36:41;;;;;;;34.53;17.00;;;;;;;6.94;94.14;96693.78;4914664;29;20588;-73
2023/12/06 03:39:08;;;;;;;34.67;16.37;;;;;;;6.92;94.14;96685.28;4913215;29;20685;-73
2023/12/06 03:41:35;;;;;;;38.10;16.27;;;;;;;7.07;94.67;96692.41;4914211;29;20205;-74
2023/12/06 03:44:02;;;;;;;30.63;14.57;;;;;;;6.79;93.88;96691.78;4913117;29;20224;-73
2023/12/06 03:46:30;;;;;;;36.50;15.50;;;;;;;6.57;94.99;96695.09;4913626;29;20236;-74
2023/12/06 03:48:57;;;;;;;29.97;13.87;;;;;;;6.73;95.86;96695.41;4913691;29;20201;-75
2023/12/06 03:51:25;;;;;;;29.00;14.20;;;;;;;6.84;95.77;96693.28;4913318;29;20627;-74
2023/12/06 03:53:52;;;;;;;34.83;15.97;;;;;;;6.88;95.10;96697.44;4914389;29;20200;-71
2023/12/06 03:56:19;;;;;;;36.00;16.47;;;;;;;6.95;95.03;96698.03;4912986;29;20198;-72
2023/12/06 03:58:46;;;;;;;37.07;17.17;;;;;;;6.82;94.70;96707.94;4899550;29;20260;-72
2023/12/06 04:01:13;;;;;;;33.00;16.10;;;;;;;6.79;95.55;96702.91;4894158;29;20234;-74
2023/12/06 04:03:41;;;;;;;37.03;17.70;;;;;;;6.84;95.21;96700.19;4893399;29;20193;-73
2023/12/06 04:06:08;;;;;;;33.23;14.40;;;;;;;6.66;95.79;96696.53;4894834;29;20189;-72
2023/12/06 04:08:35;;;;;;;35.87;16.97;;;;;;;6.85;95.29;96692.41;4893922;29;20774;-71
2023/12/06 04:11:03;;;;;;;38.80;16.67;;;;;;;6.90;94.73;96664.78;4894747;29;20272;-70
2023/12/06 04:13:30;;;;;;;33.90;16.70;;;;;;;6.55;95.80;96681.47;4893737;29;20257;-73
2023/12/06 04:15:57;;;;;;;41.07;18.67;;;;;;;6.61;96.27;96693.28;4894973;29;20588;-71
2023/12/06 04:18:24;;;;;;;43.07;21.87;;;;;;;6.73;95.56;96692.00;4892287;29;20685;-74
2023/12/06 04:20:52;;;;;;;46.77;23.23;;;;;;;6.46;96.18;96684.38;4895060;29;20203;-74
2023/12/06 04:23:19;;;;;;;29.90;15.90;;;;;;;6.46;98.02;96680.97;4894114;29;20220;-73
2023/12/06 04:25:47;;;;;;;35.90;17.30;;;;;;;6.38;96.42;96663.25;4895968;29;20632;-74
2023/12/06 04:28:15;;;;;;;35.60;15.83;;;;;;;6.33;97.07;96674.56;4913103;29;20210;-73
2023/12/06 04:30:43;;;;;;;36.23;15.87;;;;;;;6.51;97.17;96679.91;4913235;29;20232;-75
2023/12/06 04:33:11;;;;;;;31.23;15.97;;;;;;;6.61;97.02;96677.84;4896751;29;20200;-75
2023/12/06 04:35:39;;;;;;;27.43;14.50;;;;;;;6.72;96.22;96678.28;4912683;29;20338;-72
2023/12/06 04:38:13;;;;;;;30.67;14.70;;;;;;;6.69;96.58;96681.00;4913430;29;20230;-73
2023/12/06 04:40:41;;;;;;;30.33;14.60;;;;;;;6.64;96.15;96690.59;4911404;29;20247;-71
2023/12/06 04:43:08;;;;;;;33.40;15.37;;;;;;;6.65;96.38;96694.00;4912149;29;20208;-72
2023/12/06 04:45:36;;;;;;;25.27;11.73;;;;;;;6.57;95.58;96660.84;4912901;29;20211;-71
2023/12/06 04:48:04;;;;;;;26.83;13.40;;;;;;;6.48;95.57;96656.88;4911627;29;20219;-72
2023/12/06 04:50:31;;;;;;;29.30;13.63;;;;;;;6.61;95.94;96682.16;4912737;29;20314;-69
2023/12/06 04:52:59;;;;;;;34.57;15.30;;;;;;;6.67;95.72;96684.50;4894513;29;20205;-70
2023/12/06 04:55:26;;;;;;;37.23;17.93;;;;;;;6.70;96.37;96680.06;4912773;29;20189;-71
2023/12/06 04:57:53;;;;;;;35.00;16.97;;;;;;;6.78;96.05;96677.25;4911873;29;20215;-70
2023/12/06 05:00:21;;;;;;;37.60;18.70;;;;;;;6.82;95.57;96671.91;4912597;29;20216;-70
2023/12/06 05:02:49;;;;;;;36.60;18.33;;;;;;;6.83;94.93;96675.31;4894933;29;20232;-68
2023/12/06 05:05:17;;;;;;;34.03;16.27;;;;;;;6.89;94.46;96680.25;4911619;29;20646;-72
2023/12/06 05:07:44;;;;;;;33.67;15.67;;;;;;;6.77;94.59;96678.13;4912393;29;20194;-71
2023/12/06 05:10:11;;;;;;;30.33;14.83;;;;;;;6.76;94.93;96676.47;4911573;29;20229;-70
2023/12/06 05:12:39;;;;;;;27.43;14.50;;;;;;;6.68;95.96;96673.34;4912815;29;20667;-70
2023/12/06 05:15:09;;;;;;;28.23;15.10;;;;;;;6.77;95.28;96672.97;4910305;29;20270;-72
2023/12/06 05:17:44;;;;;;;34.73;17.33;;;;;;;6.90;95.62;96675.06;4910515;29;20293;-69
2023/12/06 05:20:12;;;;;;;41.90;19.33;;;;;;;6.92;94.61;96672.44;4906572;29;20212;-70
2023/12/06 05:22:39;;;;;;;42.37;22.10;;;;;;;6.95;95.31;96677.44;4893018;29;20208;-71
2023/12/06 05:25:06;;;;;;;39.87;20.80;;;;;;;6.99;94.82;96672.13;4893430;29;20262;-70
2023/12/06 05:27:33;;;;;;;48.00;21.97;;;;;;;6.91;94.78;96670.72;4893120;29;20197;-70
2023/12/06 05:30:00;;;;;;;48.37;25.17;;;;;;;6.95;95.10;96672.28;4892879;29;20247;-69
2023/12/06 05:32:29;;;;;;;53.03;24.33;;;;;;;6.89;93.97;96652.78;4891890;29;20205;-70
2023/12/06 05:34:57;;;;;;;43.20;21.37;;;;;;;6.89;94.49;96672.53;4892906;29;20217;-72
2023/12/06 05:37:24;;;;;;;39.60;18.43;;;;;;;6.81;95.00;96656.53;4874855;29;20665;-73
2023/12/06 05:39:51;;;;;;;41.33;19.40;;;;;;;6.91;94.41;96670.72;4892898;29;20272;-69
2023/12/06 05:42:18;;;;;;;39.90;19.70;;;;;;;6.74;94.57;96637.09;4892360;29;20282;-73
2023/12/06 05:44:45;;;;;;;46.13;18.90;;;;;;;6.71;94.45;96632.88;4906564;29;20556;-69
2023/12/06 05:47:13;;;;;;;38.93;19.17;;;;;;;6.64;95.79;96656.31;4892218;29;20241;-70
2023/12/06 05:49:40;;;;;;;50.53;21.90;;;;;;;6.45;96.79;96656.16;4891207;29;20221;-74
2023/12/06 05:52:07;;;;;;;39.80;20.23;;;;;;;6.54;96.72;96656.66;4892484;29;20697;-73
2023/12/06 05:54:34;;;;;;;34.50;18.47;;;;;;;6.50;96.94;96656.81;4890966;29;20206;-71
2023/12/06 05:57:02;;;;;;;47.10;18.77;;;;;;;6.74;96.05;96667.97;4892295;29;20560;-71
2023/12/06 05:59:29;;;;;;;45.73;19.73;;;;;;;6.80;96.01;96678.03;4891765;29;20203;-73
2023/12/06 06:01:56;;;;;;;51.00;24.37;;;;;;;6.57;96.33;96620.50;4891723;29;20334;-72
2023/12/06 06:04:24;;;;;;;49.97;23.23;;;;;;;6.94;95.64;96674.06;4891986;29;20706;-71
2023/12/06 06:06:51;;;;;;;49.60;24.40;;;;;;;6.68;96.97;96657.91;4891368;29;20225;-73
2023/12/06 06:09:20;;;;;;;46.20;22.73;;;;;;;6.65;96.96;96676.00;4892787;29;20213;-72
2023/12/06 06:11:47;;;;;;;56.97;24.97;;;;;;;6.77;96.75;96683.28;4891402;29;20293;-72
2023/12/06 06:14:15;;;;;;;64.07;26.87;;;;;;;6.66;96.63;96690.56;4892320;29;20197;-74
2023/12/06 06:16:42;;;;;;;47.57;22.43;;;;;;;6.57;96.49;96677.09;4891473;29;20198;-74
2023/12/06 06:19:09;;;;;;;55.50;25.23;;;;;;;6.66;96.91;96698.28;4891739;29;20212;-74
2023/12/06 06:21:36;;;;;;;52.33;21.67;;;;;;;6.57;97.92;96687.41;4892665;29;20724;-75
2023/12/06 06:24:03;;;;;;;64.23;26.20;;;;;;;6.69;97.25;96699.00;4891793;29;20213;-74
2023/12/06 06:26:30;;;;;;;57.83;25.73;;;;;;;6.41;96.87;96657.13;4892560;29;20256;-74
2023/12/06 06:28:57;;;;;;;56.07;24.60;;;;;;;6.52;97.81;96699.59;4890772;29;20225;-73
2023/12/06 06:31:25;;;;;;;60.87;24.90;;;;;;;6.68;97.08;96694.72;4892165;29;20232;-70
2023/12/06 06:33:52;;;;;;;62.53;25.30;;;;;;;6.44;96.78;96693.88;4858808;29;20290;-71
2023/12/06 06:36:19;;;;;;;55.63;24.27;;;;;;;6.67;98.07;96692.22;4891655;29;20217;-73
2023/12/06 06:38:47;;;;;;;54.20;23.73;;;;;;;6.79;96.51;96692.63;4891776;29;20220;-75
2023/12/06 06:41:14;;;;;;;61.77;27.63;;;;;;;6.58;96.64;96694.22;4891204;29;20212;-73
2023/12/06 06:43:42;;;;;;;55.47;24.57;;;;;;;6.79;97.14;96699.50;4890845;29;21134;-72
2023/12/06 06:46:09;;;;;;;57.70;26.80;;;;;;;6.67;97.25;96692.22;4890728;29;20208;-74
2023/12/06 06:48:36;;;;;;;59.50;27.33;;;;;;;6.61;97.17;96700.16;4892108;29;20897;-73
2023/12/06 06:51:04;;;;;;;65.40;27.77;;;;;;;6.69;97.34;96698.16;4891370;29;20256;-72
2023/12/06 06:53:31;;;;;;;65.07;27.37;;;;;;;6.64;97.02;96708.59;4891592;29;20213;-72
2023/12/06 06:55:58;;;;;;;50.77;25.43;;;;;;;6.56;97.52;96698.59;4891230;29;20212;-74
2023/12/06 06:58:25;;;;;;;58.30;24.13;;;;;;;6.48;97.37;96674.88;4890735;29;20189;-73
2023/12/06 07:00:53;;;;;;;62.43;26.23;;;;;;;6.40;97.09;96652.91;4905120;29;20213;-74
2023/12/06 07:03:21;;;;;;;64.23;27.17;;;;;;;6.19;98.09;96685.34;4890262;29;20238;-75
2023/12/06 07:05:48;;;;;;;59.73;26.87;;;;;;;6.36;98.21;96702.75;4892716;29;20711;-73
2023/12/06 07:08:15;;;;;;;70.30;28.73;;;;;;;6.56;97.35;96705.47;4894550;29;20280;-75
2023/12/06 07:10:47;;;;;;;62.07;24.67;;;;;;;6.27;98.23;96698.75;4895330;29;20228;-73
2023/12/06 07:13:14;;;;;;;56.37;23.73;;;;;;;6.18;99.01;96698.25;4894959;29;20644;-72
2023/12/06 07:15:41;;;;;;;57.10;22.73;;;;;;;6.33;99.86;96708.00;4894753;29;20291;-71
2023/12/06 07:18:08;;;;;;;62.13;23.87;;;;;;;6.57;99.43;96705.41;4895683;29;20281;-71
2023/12/06 07:20:35;;;;;;;53.47;21.77;;;;;;;6.52;98.66;96699.59;4894281;29;20293;-70
2023/12/06 07:23:14;;;;;;;55.53;23.23;;;;;;;6.48;98.08;96687.75;4895298;29;20203;-73
2023/12/06 07:25:41;;;;;;;49.83;21.40;;;;;;;6.43;98.47;96705.06;4894079;29;20287;-72
2023/12/06 07:28:08;;;;;;;54.23;22.30;;;;;;;6.39;98.76;96700.06;4894774;29;20273;-70
2023/12/06 07:30:35;;;;;;;52.60;21.63;;;;;;;6.64;98.40;96698.31;4894075;29;20244;-71
2023/12/06 07:33:03;;;;;;;65.73;26.00;;;;;;;6.52;97.73;96673.03;4893948;29;20231;-70
2023/12/06 07:35:30;;;;;;;60.37;24.40;;;;;;;6.81;98.56;96697.69;4894593;29;20192;-71
2023/12/06 07:37:57;;;;;;;56.07;23.13;;;;;;;6.90;97.20;96687.94;4893626;29;20343;-71
2023/12/06 07:40:24;;;;;;;53.40;21.70;;;;;;;7.12;95.79;96687.94;4894748;29;20199;-71
2023/12/06 07:42:52;;;;;;;49.17;20.00;;;;;;;7.17;94.88;96686.88;4893510;29;20272;-71
2023/12/06 07:45:19;;;;;;;51.53;22.30;;;;;;;7.19;94.44;96679.94;4894320;29;20590;-71
2023/12/06 07:47:46;;;;;;;50.07;20.17;;;;;;;7.40;94.57;96683.41;4893909;29;20936;-72
2023/12/06 07:50:14;;;;;;;59.03;23.37;;;;;;;7.15;94.21;96693.00;4894233;29;20245;-72
2023/12/06 07:52:41;;;;;;;59.20;22.97;;;;;;;7.03;95.79;96683.13;4894329;29;20199;-76
2023/12/06 07:55:10;;;;;;;60.40;25.13;;;;;;;7.20;95.12;96688.50;4893526;29;20288;-75
2023/12/06 07:57:37;;;;;;;56.23;23.70;;;;;;;7.26;94.29;96685.69;4894359;29;20205;-74
2023/12/06 08:00:07;;;;;;;50.97;22.63;;;;;;;7.49;94.68;96695.94;4893183;29;20190;-71
2023/12/06 08:02:42;;;;;;;56.47;25.83;;;;;;;7.70;92.91;96695.09;4894007;29;20329;-75
2023/12/06 08:05:10;;;;;;;64.93;27.97;;;;;;;7.44;92.88;96684.16;4905325;29;20219;-71
2023/12/06 08:07:41;;;;;;;58.10;24.87;;;;;;;7.56;93.06;96697.41;4910852;29;20203;-74
2023/12/06 08:10:12;;;;;;;59.07;24.93;;;;;;;7.59;92.52;96698.97;4912719;29;20206;-72
2023/12/06 08:12:40;;;;;;;76.93;32.40;;;;;;;7.46;92.36;96683.16;4911911;29;20206;-73
2023/12/06 08:15:08;;;;;;;79.27;32.93;;;;;;;7.68;92.71;96701.22;4913249;29;20187;-75
2023/12/06 08:17:35;;;;;;;65.33;29.50;;;;;;;7.62;92.22;96697.16;4911063;29;20288;-73
2023/12/06 08:20:08;;;;;;;62.73;27.53;;;;;;;7.49;92.73;96701.09;4912273;29;20228;-75
2023/12/06 08:22:35;;;;;;;59.03;26.13;;;;;;;7.08;92.79;96642.63;4911930;29;20652;-73
2023/12/06 08:25:02;;;;;;;56.73;25.17;;;;;;;7.43;93.56;96695.34;4911773;29;20206;-72
2023/12/06 08:27:33;;;;;;;42.47;21.40;;;;;;;7.33;93.17;96684.56;4912092;29;20196;-74
2023/12/06 08:30:02;;;;;;;47.33;20.83;;;;;;;7.51;93.42;96701.88;4894241;29;20224;-70
2023/12/06 08:32:32;;;;;;;47.30;21.63;;;;;;;7.49;93.24;96689.94;4912652;29;20232;-74
2023/12/06 08:35:01;;;;;;;55.13;24.60;;;;;;;7.65;92.70;96681.53;4894074;29;20213;-71
2023/12/06 08:37:31;;;;;;;66.80;28.50;;;;;;;7.55;92.26;96676.81;4911647;29;20247;-76
2023/12/06 08:39:58;;;;;;;60.53;26.23;;;;;;;7.34;92.64;96686.22;4911400;29;20214;-73
2023/12/06 08:42:26;;;;;;;67.27;25.07;;;;;;;7.10;92.63;96661.44;4894538;29;20243;-72
2023/12/06 08:44:56;;;;;;;70.67;28.60;;;;;;;6.91;94.41;96660.44;4912123;29;20214;-71
2023/12/06 08:47:23;;;;;;;75.93;27.97;;;;;;;7.28;94.12;96689.03;4910326;29;20203;-70
2023/12/06 08:49:51;;;;;;;77.23;28.90;;;;;;;7.33;93.70;96684.56;4894705;29;20311;-70
2023/12/06 08:52:18;;;;;;;65.10;26.20;;;;;;;7.04;93.65;96623.88;4893555;29;20257;-73
2023/12/06 08:54:46;;;;;;;70.97;28.70;;;;;;;7.33;93.91;96674.25;4911889;29;20204;-72
2023/12/06 08:57:13;;;;;;;63.60;27.50;;;;;;;7.44;93.60;96656.63;4910925;29;20332;-75
2023/12/06 08:59:41;;;;;;;73.90;27.07;;;;;;;7.54;93.69;96678.59;4910809;29;20206;-71
2023/12/06 09:02:08;;;;;;;63.77;25.20;;;;;;;7.63;92.96;96680.78;4911474;29;20655;-73
2023/12/06 09:04:35;;;;;;;69.80;26.50;;;;;;;7.70;92.94;96676.22;4910783;29;20194;-71
2023/12/06 09:07:03;;;;;;;64.10;25.37;;;;;;;7.47;92.28;96622.19;4911589;29;20599;-73
2023/12/06 09:09:30;;;;;;;63.20;26.70;;;;;;;7.86;92.57;96665.22;4910506;29;20655;-73
2023/12/06 09:11:58;;;;;;;65.63;25.60;;;;;;;7.94;91.91;96652.84;4895170;29;20622;-72
2023/12/06 09:14:26;;;;;;;64.53;24.77;;;;;;;8.00;91.63;96652.59;4910926;29;20190;-72
2023/12/06 09:16:53;;;;;;;53.97;23.50;;;;;;;7.97;91.11;96645.00;4911291;29;20701;-72
2023/12/06 09:19:21;;;;;;;53.90;22.93;;;;;;;7.73;90.97;96598.78;4911475;29;20234;-75
2023/12/06 09:22:07;;;;;;;61.67;24.07;;;;;;;7.96;91.10;96629.56;4910404;29;20234;-69
2023/12/06 09:24:34;;;;;;;67.20;24.80;;;;;;;7.91;91.22;96640.06;4911384;29;20812;-70
2023/12/06 09:27:02;;;;;;;64.37;26.90;;;;;;;7.71;90.95;96609.13;4910110;29;20261;-70
2023/12/06 09:29:29;;;;;;;63.10;25.10;;;;;;;7.59;91.01;96575.31;4910040;29;20256;-69
2023/12/06 09:31:58;;;;;;;63.33;25.30;;;;;;;8.09;91.12;96625.59;4910507;29;21001;-70
2023/12/06 09:34:26;;;;;;;61.27;23.23;;;;;;;8.08;90.34;96622.16;4910274;29;20250;-69
2023/12/06 09:37:09;;;;;;;55.37;23.23;;;;;;;7.99;90.28;96614.84;4895833;29;20202;-71
2023/12/06 09:39:36;;;;;;;61.50;25.53;;;;;;;7.91;91.23;96622.03;4909900;29;20593;-71
2023/12/06 09:42:04;;;;;;;54.87;21.93;;;;;;;7.70;91.11;96615.22;4910878;29;20201;-73
2023/12/06 09:44:32;;;;;;;47.47;19.87;;;;;;;7.50;93.03;96610.00;4911041;29;20205;-73
2023/12/06 09:46:59;;;;;;;66.30;25.80;;;;;;;7.62;92.08;96598.38;4912407;29;20593;-73
2023/12/06 09:49:27;;;;;;;55.87;24.83;;;;;;;7.48;92.10;96544.84;4911026;29;20206;-72
2023/12/06 09:52:17;;;;;;;62.93;24.27;;;;;;;7.72;91.91;96594.53;4910247;29;20340;-73
2023/12/06 09:54:49;;;;;;;64.47;23.33;;;;;;;7.36;92.52;96576.25;4894066;29;20662;-72
2023/12/06 09:57:16;;;;;;;73.33;25.57;;;;;;;7.69;91.90;96590.31;4909782;29;20262;-74
2023/12/06 09:59:44;;;;;;;69.43;27.87;;;;;;;7.82;91.00;96588.06;4893735;29;20276;-74
2023/12/06 10:02:11;;;;;;;66.93;27.53;;;;;;;7.85;90.84;96590.53;4909731;29;20631;-73
2023/12/06 10:04:38;;;;;;;74.07;29.93;;;;;;;7.86;91.87;96587.03;4910278;29;20208;-71
2023/12/06 10:07:05;;;;;;;65.93;26.70;;;;;;;7.78;92.08;96584.81;4910363;29;20217;-71
2023/12/06 10:09:32;;;;;;;70.87;28.30;;;;;;;7.76;91.45;96571.16;4910126;29;20259;-72
2023/12/06 10:12:10;;;;;;;62.60;26.20;;;;;;;7.71;91.72;96564.47;4910423;29;20329;-74
2023/12/06 10:14:38;;;;;;;62.73;28.40;;;;;;;7.64;91.54;96508.97;4909740;29;20646;-74
2023/12/06 10:17:09;;;;;;;83.43;30.43;;;;;;;8.02;91.02;96572.59;4908919;29;20229;-74
2023/12/06 10:19:37;;;;;;;70.60;29.57;;;;;;;7.90;91.44;96575.69;4909963;29;20261;-72
2023/12/06 10:22:05;;;;;;;58.87;26.40;;;;;;;7.94;91.64;96567.78;4909996;29;20201;-73
2023/12/06 10:24:33;;;;;;;65.40;27.63;;;;;;;8.14;91.63;96565.16;4910114;29;20203;-71
2023/12/06 10:27:12;;;;;;;65.50;26.83;;;;;;;7.94;91.11;96542.00;4909531;29;20202;-74
2023/12/06 10:29:40;;;;;;;56.60;23.73;;;;;;;8.02;90.71;96550.22;4911208;29;20203;-70
2023/12/06 10:32:10;;;;;;;52.60;22.90;;;;;;;8.28;90.30;96554.28;4909098;29;20361;-71
2023/12/06 10:34:37;;;;;;;59.60;22.10;;;;;;;8.36;90.27;96562.53;4908251;29;20190;-70
2023/12/06 10:37:06;;;;;;;53.27;20.80;;;;;;;8.53;89.43;96567.75;4909346;29;20205;-71
2023/12/06 10:39:37;;;;;;;55.40;20.53;;;;;;;8.38;89.30;96567.59;4907970;29;20209;-70
2023/12/06 10:42:14;;;;;;;58.27;21.73;;;;;;;8.22;89.73;96565.66;4906001;29;20193;-70
2023/12/06 10:44:41;;;;;;;45.43;19.67;;;;;;;8.17;89.72;96566.78;4906904;29;20194;-70
2023/12/06 10:47:11;;;;;;;57.57;19.80;;;;;;;8.29;89.00;96549.94;4908915;29;20237;-73
2023/12/06 10:49:40;;;;;;;43.80;18.73;;;;;;;8.41;89.36;96552.81;4892988;29;20205;-71
2023/12/06 10:52:09;;;;;;;40.67;17.30;;;;;;;7.84;89.22;96486.59;4893102;29;20242;-70
2023/12/06 10:54:42;;;;;;;33.03;14.97;;;;;;;8.38;88.77;96549.53;4892865;29;20600;-72
2023/12/06 10:57:10;;;;;;;46.77;17.20;;;;;;;8.28;88.42;96518.19;4908918;29;20206;-72
2023/12/06 10:59:37;;;;;;;43.13;16.87;;;;;;;8.30;88.72;96536.16;4910144;29;20205;-68
2023/12/06 11:02:07;;;;;;;44.43;17.83;;;;;;;8.36;89.11;96544.47;4908439;29;20293;-69
2023/12/06 11:04:39;;;;;;;43.63;16.87;;;;;;;7.93;89.27;96459.56;4909691;29;20321;-71
2023/12/06 11:07:28;;;;;;;37.37;13.77;;;;;;;8.43;87.73;96516.66;4909322;29;20206;-69
2023/12/06 11:10:11;;;;;;;33.53;13.17;;;;;;;8.58;87.96;96528.81;4892251;29;20247;-69
2023/12/06 11:12:48;;;;;;;40.87;16.40;;;;;;;8.64;87.44;96524.22;4909821;29;20222;-69
2023/12/06 11:15:42;;;;;;;37.90;14.70;;;;;;;8.68;86.66;96522.31;4909380;29;20198;-70
2023/12/06 11:18:26;;;;;;;43.67;16.50;;;;;;;8.67;86.01;96521.50;4909017;29;20190;-71
2023/12/06 11:20:54;;;;;;;36.90;15.40;;;;;;;8.71;87.01;96517.03;4908576;29;20714;-69
2023/12/06 11:23:22;;;;;;;34.30;14.43;;;;;;;8.75;86.90;96513.41;4905978;29;20222;-70
2023/12/06 11:25:53;;;;;;;47.43;17.70;;;;;;;8.75;86.99;96492.75;4909559;29;20221;-74
2023/12/06 11:28:20;;;;;;;42.83;16.50;;;;;;;8.79;86.66;96510.63;4908134;29;20199;-77